Time;durP1;ratioP1;P1;durP2;ratioP2;P2;SDS_P1;SDS_P2;PMS_P1;PMS_P2;Temp;Humidity;BMP_temperature;BMP_pressure;BME280_temperature;BME280_humidity;BME280_pressure;Samples;Min_cycle;Max_cycle;Signal;HPM_P1;HPM_P2
2020/12/13 00:01:13;;;;;;;5.85;3.40;;;;;;;23.05;42.18;93709.53;4924540;29;20421;-76
2020/12/13 00:03:38;;;;;;;5.30;3.70;;;;;;;22.98;42.49;93718.38;4906667;29;20040;-76
2020/12/13 00:06:04;;;;;;;5.85;3.65;;;;;;;22.96;42.60;93725.66;4923414;29;20524;-75
2020/12/13 00:08:29;;;;;;;5.85;3.70;;;;;;;22.90;42.37;93711.44;4924129;29;20032;-76
2020/12/13 00:10:56;;;;;;;6.22;3.15;;;;;;;22.94;42.58;93712.59;4937918;28;20043;-75
2020/12/13 00:13:22;;;;;;;5.07;3.60;;;;;;;22.91;42.52;93721.78;4924027;29;20686;-75
2020/12/13 00:15:48;;;;;;;6.25;3.67;;;;;;;22.89;42.58;93732.47;4923932;29;20039;-75
2020/12/13 00:18:13;;;;;;;5.90;3.28;;;;;;;22.82;42.72;93720.81;4921547;29;20136;-77
2020/12/13 00:20:39;;;;;;;5.32;3.45;;;;;;;22.79;42.65;93722.63;4926284;29;20019;-75
2020/12/13 00:23:04;;;;;;;5.35;3.40;;;;;;;22.83;42.68;93727.72;4927566;29;20043;-77
2020/12/13 00:25:29;;;;;;;5.40;3.67;;;;;;;22.80;42.88;93723.34;4926972;29;20043;-76
2020/12/13 00:27:55;;;;;;;6.28;3.55;;;;;;;22.75;42.86;93721.50;4927633;29;20036;-76
2020/12/13 00:30:20;;;;;;;5.45;4.13;;;;;;;22.70;42.85;93725.09;4927910;29;20028;-76
2020/12/13 00:32:46;;;;;;;5.35;4.05;;;;;;;22.65;42.82;93723.28;4925924;29;20030;-77
2020/12/13 00:35:13;;;;;;;6.10;3.92;;;;;;;22.70;42.70;93725.09;4911250;29;20032;-77
2020/12/13 00:37:39;;;;;;;5.68;4.07;;;;;;;22.71;42.76;93721.13;4947031;28;20092;-76
2020/12/13 00:40:04;;;;;;;4.70;3.33;;;;;;;22.68;42.74;93733.09;4925753;29;20036;-77
2020/12/13 00:42:30;;;;;;;5.55;3.60;;;;;;;22.63;42.93;93731.97;4927074;29;20028;-76
2020/12/13 00:44:55;;;;;;;6.35;3.78;;;;;;;22.64;42.83;93733.41;4927265;29;20428;-77
2020/12/13 00:47:21;;;;;;;5.20;3.70;;;;;;;22.60;42.95;93737.72;4942222;28;20036;-75
2020/12/13 00:49:46;;;;;;;5.50;3.70;;;;;;;22.59;42.87;93728.84;4927833;29;20477;-75
2020/12/13 00:52:11;;;;;;;5.60;3.75;;;;;;;22.60;42.84;93737.72;4926069;29;20030;-76
2020/12/13 00:54:37;;;;;;;5.45;4.20;;;;;;;22.54;43.10;93735.16;4911193;29;20050;-75
2020/12/13 00:57:02;;;;;;;6.82;4.20;;;;;;;22.54;43.28;93728.97;4927759;29;20922;-78
2020/12/13 00:59:28;;;;;;;5.85;4.05;;;;;;;22.51;43.26;93719.16;4925560;29;20401;-75
2020/12/13 01:01:53;;;;;;;5.63;3.60;;;;;;;22.55;42.95;93714.13;4941947;28;20040;-75
2020/12/13 01:04:18;;;;;;;5.47;3.53;;;;;;;22.51;43.22;93730.06;4942415;29;20079;-75
2020/12/13 01:06:44;;;;;;;6.93;3.97;;;;;;;22.46;43.26;93722.78;4927100;29;20019;-79
2020/12/13 01:09:09;;;;;;;5.95;4.03;;;;;;;22.48;43.19;93728.41;4927079;29;20028;-76
2020/12/13 01:11:35;;;;;;;5.43;3.45;;;;;;;22.42;42.99;93727.84;4926834;29;20031;-76
2020/12/13 01:14:00;;;;;;;5.78;3.72;;;;;;;22.44;43.22;93730.75;4925320;29;20131;-75
2020/12/13 01:16:26;;;;;;;5.80;3.92;;;;;;;22.41;43.27;93737.25;4925100;29;20035;-76
2020/12/13 01:18:52;;;;;;;6.90;3.85;;;;;;;22.40;43.25;93735.78;4925459;29;20118;-75
2020/12/13 01:21:22;;;;;;;6.07;3.58;;;;;;;22.36;43.36;93740.84;4941674;28;20040;-76
2020/12/13 01:23:47;;;;;;;5.15;3.45;;;;;;;22.35;43.57;93739.38;4924359;29;20047;-76
2020/12/13 01:26:14;;;;;;;5.15;3.72;;;;;;;22.37;43.33;93736.84;4942984;28;20035;-75
2020/12/13 01:28:39;;;;;;;5.82;3.65;;;;;;;22.34;43.39;93734.47;4925064;29;20497;-76
2020/12/13 01:31:05;;;;;;;5.53;3.40;;;;;;;22.31;43.36;93738.25;4924585;29;20039;-75
2020/12/13 01:33:30;;;;;;;6.30;4.00;;;;;;;22.29;43.34;93736.06;4909403;29;20044;-77
2020/12/13 01:35:56;;;;;;;5.68;3.90;;;;;;;22.29;43.31;93730.63;4941523;28;20035;-77
2020/12/13 01:38:21;;;;;;;4.85;3.65;;;;;;;22.29;43.27;93736.06;4926340;29;20036;-77
2020/12/13 01:40:47;;;;;;;5.53;3.88;;;;;;;22.27;43.55;93733.16;4941450;28;20496;-76
2020/12/13 01:43:12;;;;;;;5.72;3.63;;;;;;;22.19;43.34;93726.88;4926209;29;20028;-75
2020/12/13 01:45:37;;;;;;;5.50;3.70;;;;;;;22.20;43.42;93722.91;4925061;29;20036;-75
2020/12/13 01:48:03;;;;;;;5.50;3.38;;;;;;;22.20;43.71;93733.78;4940528;29;20024;-75
2020/12/13 01:50:42;;;;;;;6.10;3.67;;;;;;;22.20;43.44;93728.34;4925445;29;20051;-77
2020/12/13 01:53:15;;;;;;;5.40;3.58;;;;;;;22.21;43.47;93727.13;4926199;29;20038;-76
2020/12/13 01:55:45;;;;;;;5.68;3.92;;;;;;;22.18;43.53;93730.88;4940560;28;20066;-77
2020/12/13 01:58:13;;;;;;;5.57;3.80;;;;;;;22.14;43.49;93725.06;4925567;29;20040;-77
2020/12/13 02:00:40;;;;;;;5.88;3.85;;;;;;;22.14;43.54;93727.03;4922973;29;20522;-76
2020/12/13 02:03:06;;;;;;;5.07;3.53;;;;;;;22.12;43.77;93735.72;4927936;29;20040;-76
2020/12/13 02:05:31;;;;;;;4.82;3.58;;;;;;;22.11;43.74;93731.56;4943420;29;20038;-77
2020/12/13 02:07:56;;;;;;;5.32;3.63;;;;;;;22.08;43.67;93721.72;4940873;28;20440;-77
2020/12/13 02:10:22;;;;;;;5.30;3.72;;;;;;;22.06;43.69;93724.25;4941086;28;20873;-76
2020/12/13 02:12:47;;;;;;;4.90;3.50;;;;;;;22.07;43.43;93728.44;4924935;29;20501;-77
2020/12/13 02:15:13;;;;;;;5.32;3.55;;;;;;;22.05;43.92;93733.66;4914517;29;20489;-77
2020/12/13 02:17:38;;;;;;;5.75;3.88;;;;;;;22.05;43.72;93728.22;4925651;29;20036;-77
2020/12/13 02:20:11;;;;;;;5.38;3.88;;;;;;;22.06;43.67;93724.25;4908454;29;20023;-78
2020/12/13 02:22:46;;;;;;;5.07;3.60;;;;;;;22.01;43.88;93725.09;4923805;29;20051;-77
2020/12/13 02:25:22;;;;;;;5.72;4.15;;;;;;;22.02;43.83;93723.84;4925724;29;20034;-76
2020/12/13 02:27:48;;;;;;;6.28;3.83;;;;;;;21.99;43.79;93727.63;4923421;29;20501;-77
2020/12/13 02:30:13;;;;;;;5.72;3.50;;;;;;;22.01;43.69;93744.13;4923766;29;20032;-77
2020/12/13 02:32:39;;;;;;;5.43;3.55;;;;;;;21.99;43.65;93735.78;4924377;29;20038;-78
2020/12/13 02:35:04;;;;;;;5.18;3.70;;;;;;;21.98;43.76;93739.03;4923958;29;20031;-76
2020/12/13 02:37:30;;;;;;;5.35;3.78;;;;;;;21.96;43.97;93736.13;4907045;29;20039;-76
2020/12/13 02:39:55;;;;;;;5.60;3.72;;;;;;;21.94;43.88;93738.63;4923871;29;20042;-78
2020/12/13 02:42:21;;;;;;;5.43;3.78;;;;;;;21.94;43.87;93744.81;4907849;29;20032;-77
2020/12/13 02:44:46;;;;;;;5.22;3.65;;;;;;;21.88;44.03;93742.75;4939372;28;20046;-77
2020/12/13 02:47:12;;;;;;;6.95;3.92;;;;;;;21.90;43.82;93746.41;4924342;29;20019;-78
2020/12/13 02:49:41;;;;;;;5.63;3.67;;;;;;;21.92;43.94;93737.72;4924149;29;20040;-77
2020/12/13 02:52:07;;;;;;;6.63;4.22;;;;;;;21.89;43.90;93744.22;4908798;29;20099;-77
2020/12/13 02:54:32;;;;;;;6.40;4.05;;;;;;;21.89;43.93;93741.50;4939697;28;20466;-77
2020/12/13 02:56:58;;;;;;;5.72;3.88;;;;;;;21.89;43.97;93752.38;4925705;29;20126;-76
2020/12/13 02:59:23;;;;;;;6.00;3.55;;;;;;;21.83;44.01;93754.47;4925246;29;20099;-79
2020/12/13 03:01:48;;;;;;;5.35;3.83;;;;;;;21.86;44.03;93753.44;4928105;29;20027;-78
2020/12/13 03:04:14;;;;;;;5.22;3.50;;;;;;;21.87;43.64;93750.19;4939803;28;20023;-78
2020/12/13 03:06:39;;;;;;;6.32;3.65;;;;;;;21.82;44.05;93747.59;4925337;29;20032;-77
2020/12/13 03:09:05;;;;;;;5.40;3.88;;;;;;;21.84;43.91;93750.50;4924310;29;20023;-79
2020/12/13 03:11:31;;;;;;;5.38;4.15;;;;;;;21.79;44.15;93751.34;4929614;29;20020;-76
2020/12/13 03:13:57;;;;;;;5.95;3.95;;;;;;;21.79;44.05;93759.50;4923979;29;20412;-77
2020/12/13 03:16:22;;;;;;;5.53;3.70;;;;;;;21.77;43.96;93751.16;4925732;29;20028;-77
2020/12/13 03:18:47;;;;;;;5.38;3.70;;;;;;;21.77;43.70;93756.59;4939099;28;20043;-77
2020/12/13 03:21:13;;;;;;;5.30;3.63;;;;;;;21.74;44.01;93763.09;4924457;29;20036;-76
2020/12/13 03:23:38;;;;;;;5.20;3.63;;;;;;;21.70;44.27;93758.00;4923504;29;20073;-77
2020/12/13 03:26:04;;;;;;;6.03;4.20;;;;;;;21.68;44.24;93771.34;4925457;29;20024;-77
2020/12/13 03:28:29;;;;;;;6.13;3.88;;;;;;;21.73;44.26;93761.63;4924028;29;20047;-77
2020/12/13 03:30:55;;;;;;;6.10;3.95;;;;;;;21.68;44.16;93759.75;4939435;28;20035;-77
2020/12/13 03:33:20;;;;;;;5.72;4.18;;;;;;;21.69;44.25;93766.66;4938990;28;20131;-78
2020/12/13 03:35:46;;;;;;;6.25;3.67;;;;;;;21.66;44.24;93771.16;4906048;29;20043;-77
2020/12/13 03:38:11;;;;;;;5.82;3.92;;;;;;;21.65;43.59;93768.97;4940047;28;20095;-77
2020/12/13 03:40:37;;;;;;;5.47;3.67;;;;;;;21.68;44.16;93781.50;4938718;28;20024;-79
2020/12/13 03:43:02;;;;;;;5.47;3.78;;;;;;;21.64;44.12;93775.66;4923861;29;20792;-76
2020/12/13 03:45:27;;;;;;;5.32;4.03;;;;;;;21.61;44.37;93765.84;4923527;29;20382;-77
2020/12/13 03:47:53;;;;;;;6.07;3.75;;;;;;;21.63;43.80;93768.78;4922832;29;20528;-77
2020/12/13 03:50:18;;;;;;;6.28;4.18;;;;;;;21.62;44.37;93772.75;4906726;29;20128;-77
2020/12/13 03:52:44;;;;;;;5.00;3.72;;;;;;;21.66;44.15;93773.88;4924536;29;20416;-76
2020/12/13 03:55:09;;;;;;;6.25;4.10;;;;;;;21.71;44.12;93775.00;4926865;29;20527;-77
2020/12/13 03:57:34;;;;;;;5.05;3.80;;;;;;;21.75;44.23;93764.53;4929301;29;20024;-77
2020/12/13 04:00:00;;;;;;;5.43;3.47;;;;;;;21.76;43.84;93771.44;4928386;29;20099;-77
2020/12/13 04:02:25;;;;;;;5.82;4.10;;;;;;;21.83;44.10;93776.22;4942640;28;20016;-77
2020/12/13 04:04:51;;;;;;;6.13;3.90;;;;;;;21.83;43.90;93770.78;4928032;29;20056;-77
2020/12/13 04:07:16;;;;;;;6.45;4.00;;;;;;;21.80;43.93;93769.13;4928083;29;20032;-77
2020/12/13 04:09:42;;;;;;;5.03;3.15;;;;;;;21.87;44.28;93776.59;4927172;29;20028;-76
2020/12/13 04:12:07;;;;;;;6.78;4.05;;;;;;;21.90;44.01;93781.72;4927065;29;20060;-77
2020/12/13 04:14:33;;;;;;;4.57;3.38;;;;;;;21.92;44.00;93781.22;4927914;29;20086;-77
2020/12/13 04:16:58;;;;;;;6.28;3.92;;;;;;;21.95;43.89;93784.31;4942878;29;20028;-77
2020/12/13 04:19:23;;;;;;;4.90;3.28;;;;;;;21.95;43.88;93789.75;4927140;29;20028;-78
2020/12/13 04:21:49;;;;;;;6.57;3.95;;;;;;;21.98;43.94;93783.25;4927730;29;20019;-77
2020/12/13 04:24:14;;;;;;;5.38;3.75;;;;;;;22.01;43.82;93781.47;4946174;28;20127;-77
2020/12/13 04:26:40;;;;;;;5.45;3.28;;;;;;;22.02;43.79;93783.66;4950332;29;20039;-76
2020/12/13 04:29:05;;;;;;;5.35;3.70;;;;;;;22.04;43.58;93792.00;4943260;28;20040;-77
2020/12/13 04:31:30;;;;;;;5.63;3.80;;;;;;;22.07;43.75;93790.22;4928844;29;20039;-76
2020/12/13 04:33:56;;;;;;;5.97;3.88;;;;;;;22.07;43.55;93796.38;4928204;29;20036;-76
2020/12/13 04:36:21;;;;;;;5.93;3.63;;;;;;;22.09;43.56;93804.00;4927932;29;20028;-76
2020/12/13 04:38:47;;;;;;;4.88;3.58;;;;;;;22.09;43.49;93796.59;4942595;29;20028;-76
2020/12/13 04:41:12;;;;;;;4.88;3.58;;;;;;;22.10;43.61;93798.03;4925054;29;20046;-77
2020/12/13 04:43:38;;;;;;;5.22;3.65;;;;;;;22.13;43.58;93805.16;4942122;28;20036;-78
2020/12/13 04:46:04;;;;;;;5.43;3.90;;;;;;;22.14;43.49;93801.19;4926429;29;20432;-76
2020/12/13 04:48:29;;;;;;;4.63;3.60;;;;;;;22.10;43.74;93798.03;4921428;29;20028;-77
2020/12/13 04:50:55;;;;;;;4.95;3.63;;;;;;;22.19;43.73;93808.47;4926538;29;20042;-78
2020/12/13 04:53:20;;;;;;;4.10;3.40;;;;;;;22.20;43.63;93811.94;4910278;29;20493;-77
2020/12/13 04:55:59;;;;;;;5.25;3.63;;;;;;;22.22;43.70;93809.44;4942051;28;20027;-77
2020/12/13 04:58:25;;;;;;;5.63;4.15;;;;;;;22.21;43.38;93806.00;4930334;29;20040;-77
2020/12/13 05:00:55;;;;;;;6.28;3.80;;;;;;;22.23;43.54;93811.63;4910619;29;20507;-85
2020/12/13 05:03:21;;;;;;;4.90;3.30;;;;;;;22.24;43.68;93810.38;4925898;29;20078;-76
2020/12/13 05:05:47;;;;;;;5.80;3.90;;;;;;;22.26;43.38;93807.13;4940143;28;20508;-77
2020/12/13 05:08:12;;;;;;;5.18;3.38;;;;;;;22.23;43.50;93808.91;4942095;28;20056;-77
2020/12/13 05:10:38;;;;;;;6.55;4.03;;;;;;;22.25;43.32;93806.38;4941710;28;20043;-77
2020/12/13 05:13:07;;;;;;;4.95;3.85;;;;;;;22.26;43.39;93813.28;4926982;29;20047;-77
2020/12/13 05:15:36;;;;;;;6.20;3.90;;;;;;;22.25;43.39;93811.81;4926567;29;20508;-76
2020/12/13 05:18:02;;;;;;;4.95;3.60;;;;;;;22.29;43.65;93816.94;4925244;29;20816;-77
2020/12/13 05:20:27;;;;;;;5.70;3.70;;;;;;;22.28;43.61;93810.75;4940428;28;20036;-77
2020/12/13 05:22:56;;;;;;;7.10;3.95;;;;;;;22.29;43.41;93801.34;4925168;29;20103;-78
2020/12/13 05:25:49;;;;;;;5.57;3.50;;;;;;;22.33;43.33;93803.72;4941100;28;20115;-77
2020/12/13 05:28:14;;;;;;;5.43;4.10;;;;;;;22.31;43.23;93809.69;4937782;28;20566;-77
2020/12/13 05:30:43;;;;;;;6.70;4.07;;;;;;;22.37;43.11;93815.00;4941335;28;20036;-78
2020/12/13 05:33:14;;;;;;;5.65;3.75;;;;;;;22.38;43.09;93814.47;4940388;28;20028;-79
2020/12/13 05:35:40;;;;;;;7.03;3.85;;;;;;;22.41;42.79;93818.84;4926973;29;20134;-78
2020/12/13 05:38:12;;;;;;;6.97;4.05;;;;;;;22.39;43.07;93810.50;4908953;29;20039;-79
2020/12/13 05:40:37;;;;;;;5.90;3.60;;;;;;;22.41;43.06;93807.97;4909861;29;20039;-79
2020/12/13 05:43:11;;;;;;;5.57;3.67;;;;;;;22.44;43.03;93821.22;4943731;28;20047;-78
2020/12/13 05:53:03;;;;;;;6.72;4.57;;;;;;;22.65;42.45;93832.13;4909403;29;20073;-78
2020/12/13 05:55:29;;;;;;;9.32;5.93;;;;;;;22.67;42.17;93829.59;4925389;29;20420;-78
2020/12/13 05:57:54;;;;;;;7.75;5.20;;;;;;;22.66;42.12;93828.13;4924537;29;20048;-78
2020/12/13 06:00:19;;;;;;;8.40;4.90;;;;;;;22.74;42.29;93835.09;4924516;29;20031;-77
2020/12/13 06:02:45;;;;;;;7.82;4.75;;;;;;;22.82;42.33;93837.88;4909182;29;20028;-81
2020/12/13 06:05:15;;;;;;;8.48;4.75;;;;;;;22.86;42.12;93843.72;4924287;29;20031;-83
2020/12/13 06:07:45;;;;;;;9.02;5.40;;;;;;;22.94;42.01;93842.50;4923812;29;20036;-82
2020/12/13 06:10:11;;;;;;;8.40;4.97;;;;;;;23.01;41.71;93839.13;4939890;28;20496;-78
2020/12/13 06:12:36;;;;;;;6.72;4.55;;;;;;;23.09;41.93;93843.34;4924732;29;20035;-77
2020/12/13 06:15:02;;;;;;;8.50;5.20;;;;;;;23.17;41.73;93848.81;4909117;29;20048;-77
2020/12/13 06:17:27;;;;;;;7.97;4.60;;;;;;;23.15;41.72;93846.66;4924003;29;20046;-81
2020/12/13 06:19:53;;;;;;;6.65;4.93;;;;;;;23.25;41.57;93866.69;4908549;29;20413;-80
2020/12/13 06:22:19;;;;;;;10.40;5.50;;;;;;;23.27;41.26;93858.69;4909018;29;20032;-77
2020/12/13 06:24:49;;;;;;;7.03;5.03;;;;;;;23.33;41.17;93859.28;4909187;29;21481;-79
2020/12/13 06:27:14;;;;;;;9.45;6.22;;;;;;;23.43;41.33;93865.69;4926126;29;20130;-78
2020/12/13 06:29:41;;;;;;;7.38;4.80;;;;;;;23.49;41.18;93869.00;4940095;28;20134;-79
2020/12/13 06:32:06;;;;;;;8.40;5.53;;;;;;;23.55;40.98;93875.03;4924188;29;20119;-78
2020/12/13 06:34:32;;;;;;;7.95;5.05;;;;;;;23.62;40.74;93866.16;4940347;28;20031;-78
2020/12/13 06:36:57;;;;;;;7.88;5.50;;;;;;;23.66;40.70;93872.75;4941023;28;20020;-80
2020/12/13 06:39:23;;;;;;;7.80;4.72;;;;;;;23.70;40.51;93878.56;4940041;28;20043;-77
2020/12/13 06:41:52;;;;;;;7.45;4.97;;;;;;;23.71;40.65;93862.97;4926378;29;20599;-78
2020/12/13 06:44:17;;;;;;;8.00;5.00;;;;;;;23.83;40.11;93869.56;4923597;29;20032;-77
2020/12/13 06:46:45;;;;;;;6.90;4.75;;;;;;;23.87;40.39;93876.13;4926544;29;20415;-79
2020/12/13 06:49:15;;;;;;;8.40;5.32;;;;;;;23.84;40.58;93876.47;4930610;29;20043;-81
2020/12/13 06:51:45;;;;;;;7.45;5.18;;;;;;;23.93;40.43;93880.16;4941933;29;20179;-79
2020/12/13 06:54:11;;;;;;;7.18;4.80;;;;;;;23.92;40.42;93878.69;4909800;29;20097;-80
2020/12/13 06:56:38;;;;;;;7.78;5.20;;;;;;;24.03;39.95;93880.34;4927732;28;20035;-81
2020/12/13 06:59:05;;;;;;;7.50;4.88;;;;;;;24.04;40.25;93874.34;4924823;29;20039;-82
2020/12/13 07:01:34;;;;;;;8.02;5.25;;;;;;;24.15;40.03;93879.47;4938203;28;20043;-81
2020/12/13 07:04:21;;;;;;;8.07;5.50;;;;;;;24.21;39.97;93888.22;4921658;29;20042;-80
2020/12/13 07:06:47;;;;;;;8.27;5.13;;;;;;;24.22;39.51;93889.69;4923316;29;20093;-79
2020/12/13 07:09:13;;;;;;;8.07;5.60;;;;;;;24.19;40.06;93890.78;4925073;29;20091;-79
2020/12/13 07:11:43;;;;;;;6.78;4.65;;;;;;;24.20;39.63;93903.16;4922074;29;20028;-78
2020/12/13 07:14:12;;;;;;;8.45;5.30;;;;;;;24.18;39.58;93883.84;4921730;29;20031;-78
2020/12/13 07:16:42;;;;;;;8.48;5.30;;;;;;;24.25;39.45;93893.34;4935599;28;20046;-77
2020/12/13 07:19:10;;;;;;;7.75;5.57;;;;;;;24.25;39.81;93894.06;4908887;29;20481;-77
2020/12/13 07:21:36;;;;;;;8.50;5.45;;;;;;;24.30;39.61;93901.34;4923584;29;20481;-79
2020/12/13 07:24:01;;;;;;;8.65;5.60;;;;;;;24.42;39.64;93897.03;4908458;29;20050;-78
2020/12/13 07:26:31;;;;;;;9.15;5.80;;;;;;;24.44;39.15;93916.34;4940338;28;20031;-81
2020/12/13 07:28:57;;;;;;;8.02;5.32;;;;;;;24.46;38.98;93914.50;4937344;28;20398;-82
2020/12/13 07:31:24;;;;;;;9.52;5.90;;;;;;;24.45;39.63;93909.59;4921870;29;20032;-82
2020/12/13 07:33:49;;;;;;;8.45;5.55;;;;;;;24.45;39.29;93909.59;4939607;28;20035;-79
2020/12/13 07:36:15;;;;;;;7.57;5.10;;;;;;;24.49;39.17;93907.97;4939283;29;20044;-80
2020/12/13 07:38:40;;;;;;;8.50;5.15;;;;;;;24.49;39.51;93923.63;4923190;29;20027;-83
2020/12/13 07:41:19;;;;;;;8.52;5.38;;;;;;;24.56;39.30;93926.38;4908032;29;20026;-83
2020/12/13 07:43:54;;;;;;;8.32;5.32;;;;;;;24.57;39.00;93924.38;4938526;28;20040;-82
2020/12/13 07:46:20;;;;;;;8.65;5.20;;;;;;;24.57;39.21;93935.28;4923500;29;20054;-79
2020/12/13 07:48:46;;;;;;;8.55;5.60;;;;;;;24.60;38.89;93939.66;4922639;29;20035;-81
2020/12/13 07:51:11;;;;;;;7.80;5.40;;;;;;;24.61;39.36;93952.03;4907200;29;20058;-79
2020/12/13 07:53:36;;;;;;;8.75;5.57;;;;;;;24.63;39.32;93944.03;4937605;28;20493;-80
2020/12/13 07:56:02;;;;;;;8.73;5.50;;;;;;;24.61;39.15;93941.13;4906414;29;20079;-78
2020/12/13 07:58:28;;;;;;;9.63;6.07;;;;;;;24.64;39.29;93948.22;4923357;29;20056;-78
2020/12/13 08:00:53;;;;;;;15.75;6.85;;;;;;;24.66;39.11;93951.13;4924873;29;20035;-75
2020/12/13 08:03:19;;;;;;;9.48;6.07;;;;;;;24.65;38.58;93957.88;4938988;28;20031;-78
2020/12/13 08:05:44;;;;;;;8.85;6.00;;;;;;;24.65;38.82;93957.88;4939005;28;20028;-79
2020/12/13 08:08:10;;;;;;;8.48;5.80;;;;;;;24.70;38.56;93970.63;4923730;29;20393;-76
2020/12/13 08:10:35;;;;;;;11.50;6.75;;;;;;;24.69;38.60;93969.16;4938885;28;20394;-76
2020/12/13 08:13:03;;;;;;;13.63;6.30;;;;;;;24.72;38.94;93970.81;4891768;29;20036;-77
2020/12/13 08:15:28;;;;;;;12.63;6.25;;;;;;;24.77;38.79;93970.66;4924883;29;20043;-76
2020/12/13 08:18:07;;;;;;;12.55;6.03;;;;;;;24.81;38.70;93970.28;4931086;29;20027;-80
2020/12/13 08:20:37;;;;;;;13.15;6.47;;;;;;;24.86;38.37;93965.38;4925454;29;20035;-77
2020/12/13 08:23:03;;;;;;;10.43;5.95;;;;;;;24.83;38.70;93963.00;4890005;29;20040;-77
2020/12/13 08:25:29;;;;;;;11.85;6.30;;;;;;;24.80;38.51;93958.63;4923193;29;20042;-76
2020/12/13 08:27:56;;;;;;;10.23;6.15;;;;;;;24.81;38.66;93959.38;4938885;28;20595;-83
2020/12/13 08:30:21;;;;;;;13.50;6.47;;;;;;;24.78;38.42;93961.16;4924169;29;20516;-76
2020/12/13 08:32:47;;;;;;;12.10;5.88;;;;;;;24.77;38.76;93958.97;4907062;29;20075;-77
2020/12/13 08:35:18;;;;;;;11.00;6.45;;;;;;;24.70;38.71;93956.97;4939731;28;20039;-79
2020/12/13 08:38:00;;;;;;;9.40;6.18;;;;;;;24.63;38.72;93949.50;4921457;29;20068;-77
2020/12/13 08:40:35;;;;;;;12.30;6.53;;;;;;;24.57;38.67;93957.13;4922911;29;20035;-77
2020/12/13 08:43:01;;;;;;;10.85;6.47;;;;;;;24.50;38.79;93963.31;4927306;29;20071;-76
2020/12/13 08:45:26;;;;;;;11.23;6.75;;;;;;;24.44;38.97;93970.94;4925819;29;20464;-77
2020/12/13 08:47:51;;;;;;;9.45;6.50;;;;;;;24.42;39.04;93973.44;4911906;29;20023;-77
2020/12/13 08:50:20;;;;;;;10.02;6.07;;;;;;;24.37;39.33;93977.81;4910147;29;20039;-79
2020/12/13 08:52:45;;;;;;;10.65;6.65;;;;;;;24.33;39.29;93981.44;4928101;29;20042;-78
2020/12/13 08:55:11;;;;;;;10.45;6.60;;;;;;;24.30;39.06;93979.75;4910323;29;20035;-75
2020/12/13 08:57:45;;;;;;;8.48;5.70;;;;;;;24.25;39.56;93981.38;4925331;29;20027;-77
2020/12/13 09:00:14;;;;;;;10.38;6.00;;;;;;;24.22;39.66;93982.44;4940743;28;20031;-78
2020/12/13 09:02:39;;;;;;;10.00;6.70;;;;;;;24.15;39.33;93982.41;4927204;29;20563;-77
2020/12/13 09:05:06;;;;;;;10.82;6.47;;;;;;;24.14;39.27;93986.41;4941302;28;20036;-76
2020/12/13 09:07:32;;;;;;;9.80;6.43;;;;;;;24.13;39.73;93985.69;4926602;29;20028;-75
2020/12/13 09:10:17;;;;;;;11.40;6.60;;;;;;;24.09;39.31;93985.28;4914566;29;20054;-78
2020/12/13 09:12:43;;;;;;;10.70;6.60;;;;;;;24.05;39.71;93984.91;4944048;28;20055;-76
2020/12/13 09:15:22;;;;;;;10.15;6.38;;;;;;;24.00;39.90;93974.16;4942076;28;20043;-78
2020/12/13 09:17:55;;;;;;;10.45;6.30;;;;;;;23.97;39.66;93973.22;4926367;29;20047;-78
2020/12/13 09:20:24;;;;;;;10.45;6.97;;;;;;;23.93;40.07;93969.38;4906781;29;20102;-77
2020/12/13 09:23:02;;;;;;;12.07;7.00;;;;;;;23.86;40.25;93972.09;4927035;29;20501;-78
2020/12/13 09:25:27;;;;;;;11.93;6.25;;;;;;;23.85;40.01;93981.53;4940929;28;20122;-78
2020/12/13 09:28:00;;;;;;;10.43;6.28;;;;;;;23.86;39.68;93983.00;4909811;29;20047;-78
2020/12/13 09:30:25;;;;;;;10.70;7.03;;;;;;;23.82;40.02;93971.69;4923867;29;20067;-79
2020/12/13 09:32:50;;;;;;;12.23;6.72;;;;;;;23.77;40.07;93975.31;4925527;29;20020;-76
2020/12/13 09:35:16;;;;;;;10.73;6.47;;;;;;;23.75;39.97;93972.38;4925250;29;20417;-77
2020/12/13 09:37:41;;;;;;;8.88;6.25;;;;;;;23.74;39.92;93965.47;4940725;29;20043;-77
2020/12/13 09:40:07;;;;;;;12.23;6.55;;;;;;;23.72;40.35;93970.72;4925054;29;20043;-78
2020/12/13 09:42:32;;;;;;;11.32;7.00;;;;;;;23.71;39.89;93966.56;4925768;29;20040;-76
2020/12/13 09:44:58;;;;;;;11.07;6.90;;;;;;;23.68;40.42;93973.06;4926203;29;20036;-77
2020/12/13 09:47:23;;;;;;;9.85;6.43;;;;;;;23.66;40.36;93975.59;4926104;29;20039;-77
2020/12/13 09:49:49;;;;;;;10.50;6.72;;;;;;;23.62;40.73;93975.91;4924997;29;20034;-77
2020/12/13 09:52:14;;;;;;;11.27;6.72;;;;;;;23.61;40.01;93968.28;4925337;29;20028;-76
2020/12/13 09:54:39;;;;;;;10.10;6.43;;;;;;;23.59;40.26;93973.53;4925300;29;20028;-77
2020/12/13 09:57:05;;;;;;;10.27;6.45;;;;;;;23.56;40.51;93972.59;4927391;29;20044;-77
2020/12/13 09:59:30;;;;;;;11.00;7.03;;;;;;;23.53;40.76;93978.41;4926354;29;20025;-78
2020/12/13 10:01:56;;;;;;;10.45;6.55;;;;;;;23.53;40.36;93972.94;4925986;29;20393;-76
2020/12/13 10:04:22;;;;;;;11.93;6.75;;;;;;;23.46;40.65;93968.16;4924724;29;20019;-78
2020/12/13 10:09:18;;;;;;;10.25;6.43;;;;;;;23.46;40.66;93957.28;4924510;29;20024;-78
2020/12/13 10:11:44;;;;;;;10.38;6.60;;;;;;;23.47;40.51;93958.75;4940655;28;20039;-77
2020/12/13 10:14:11;;;;;;;10.43;7.20;;;;;;;23.43;40.45;93947.44;4925142;29;20036;-77
2020/12/13 10:16:40;;;;;;;11.63;6.72;;;;;;;23.47;40.85;93947.84;4923827;29;20040;-77
2020/12/13 10:19:06;;;;;;;13.88;7.15;;;;;;;23.44;40.77;93951.63;4909491;29;20055;-79
2020/12/13 10:21:33;;;;;;;16.08;6.82;;;;;;;23.46;40.98;93949.09;4925471;29;20062;-75
2020/12/13 10:23:58;;;;;;;13.25;6.63;;;;;;;23.42;41.29;93948.69;4924151;29;20146;-79
2020/12/13 10:26:24;;;;;;;13.52;7.47;;;;;;;23.48;41.12;93949.28;4925158;29;20044;-77
2020/12/13 10:28:51;;;;;;;16.05;7.90;;;;;;;23.46;40.85;93951.81;4923089;29;20211;-76
2020/12/13 10:31:16;;;;;;;10.13;6.72;;;;;;;23.42;40.83;93951.41;4921922;29;20028;-75
2020/12/13 10:33:41;;;;;;;10.05;7.20;;;;;;;23.44;41.03;93954.34;4940703;28;20520;-78
2020/12/13 10:36:08;;;;;;;11.82;7.28;;;;;;;23.45;40.72;93950.34;4925035;29;20047;-77
2020/12/13 10:38:34;;;;;;;11.55;6.78;;;;;;;23.44;41.05;93948.91;4926104;29;20040;-76
2020/12/13 10:40:59;;;;;;;13.23;7.05;;;;;;;23.45;40.63;93955.78;4923867;29;20420;-77
2020/12/13 10:43:25;;;;;;;10.98;7.05;;;;;;;23.42;40.58;93941.28;4925383;29;20031;-77
2020/12/13 10:45:50;;;;;;;11.93;7.15;;;;;;;23.45;40.67;93942.19;4925960;29;20066;-77
2020/12/13 10:48:15;;;;;;;18.15;8.93;;;;;;;23.44;40.70;93938.00;4926301;29;20027;-77
2020/12/13 10:50:41;;;;;;;12.63;7.57;;;;;;;23.44;40.51;93943.47;4914579;29;20050;-76
2020/12/13 10:53:06;;;;;;;12.48;7.03;;;;;;;23.44;40.68;93935.28;4943181;29;20031;-75
2020/12/13 10:55:32;;;;;;;10.30;7.13;;;;;;;23.38;40.57;93934.69;4925684;29;20032;-77
2020/12/13 10:57:57;;;;;;;12.38;7.45;;;;;;;23.39;40.46;93938.88;4926021;29;20087;-76
2020/12/13 11:00:23;;;;;;;27.98;8.93;;;;;;;23.40;40.47;93949.22;4924913;29;20027;-81
2020/12/13 11:02:52;;;;;;;18.98;8.82;;;;;;;23.41;41.12;93947.97;4923824;29;20032;-79
2020/12/13 11:05:17;;;;;;;15.82;7.18;;;;;;;23.42;40.92;93945.97;4923226;29;20040;-74
2020/12/13 11:07:43;;;;;;;13.27;7.20;;;;;;;23.45;40.87;93944.91;4907385;29;20032;-74
2020/12/13 11:10:09;;;;;;;12.30;6.95;;;;;;;23.45;41.01;93953.81;4939646;28;20023;-77
2020/12/13 11:12:34;;;;;;;14.85;7.95;;;;;;;23.45;41.23;93955.78;4924709;29;20031;-75
2020/12/13 11:14:59;;;;;;;14.30;8.13;;;;;;;23.45;41.13;93944.91;4924657;29;20031;-76
2020/12/13 11:17:25;;;;;;;13.70;7.28;;;;;;;23.46;41.40;93940.91;4924502;29;20035;-77
2020/12/13 11:19:50;;;;;;;14.52;8.65;;;;;;;23.44;41.53;93932.56;4923124;29;20088;-80
2020/12/13 11:22:16;;;;;;;12.10;8.07;;;;;;;23.45;40.67;93947.63;4939281;29;20043;-78
2020/12/13 11:24:42;;;;;;;13.38;8.18;;;;;;;23.39;40.89;93952.47;4924176;29;20039;-80
2020/12/13 11:27:07;;;;;;;13.65;9.15;;;;;;;23.37;40.83;93948.84;4923969;29;20038;-78
2020/12/13 11:29:34;;;;;;;16.00;9.23;;;;;;;23.38;41.05;93946.31;4926409;29;22083;-77
2020/12/13 11:32:00;;;;;;;13.65;8.65;;;;;;;23.40;41.31;93948.50;4928822;29;20043;-77
2020/12/13 11:34:26;;;;;;;13.30;8.05;;;;;;;23.39;41.60;93936.88;4945083;28;20032;-78
2020/12/13 11:36:51;;;;;;;12.98;8.18;;;;;;;23.39;41.43;93936.88;4925314;29;20484;-77
2020/12/13 11:39:16;;;;;;;15.68;7.80;;;;;;;23.40;41.72;93941.06;4922897;29;20464;-78